createdAt,value
2023-02-01T00:01:23.926Z,100027.02
2023-02-01T00:03:51.977Z,100037.63
2023-02-01T00:06:19.957Z,100035.80
2023-02-01T00:08:47.926Z,100036.33
2023-02-01T00:11:15.970Z,100032.83
2023-02-01T00:13:43.828Z,100034.63
2023-02-01T00:16:21.213Z,100041.50
2023-02-01T00:18:51.513Z,100044.69
2023-02-01T00:21:23.482Z,100041.66
2023-02-01T00:23:51.440Z,100037.09
2023-02-01T00:26:24.444Z,100038.14
2023-02-01T00:28:52.343Z,100036.71
2023-02-01T00:31:20.457Z,100036.92
2023-02-01T00:33:49.490Z,100037.82
2023-02-01T00:36:17.880Z,100036.86
2023-02-01T00:38:46.199Z,100034.41
2023-02-01T00:41:17.472Z,100035.48
2023-02-01T00:43:46.012Z,100038.48
2023-02-01T00:46:16.354Z,100034.56
2023-02-01T00:48:45.472Z,100039.55
2023-02-01T00:51:16.802Z,100033.73
2023-02-01T00:53:45.235Z,100035.64
2023-02-01T00:56:13.858Z,100034.33
2023-02-01T00:58:45.270Z,100042.95
2023-02-01T01:01:20.098Z,100041.46
2023-02-01T01:03:54.911Z,100037.87
2023-02-01T01:06:29.519Z,100040.54
2023-02-01T01:08:59.730Z,100046.02
2023-02-01T01:11:33.132Z,100054.23
2023-02-01T01:14:01.899Z,100060.66
2023-02-01T01:16:31.939Z,100057.36
2023-02-01T01:19:00.994Z,100060.73
2023-02-01T01:21:31.279Z,100058.21
2023-02-01T01:23:59.745Z,100051.48
2023-02-01T01:26:30.980Z,100058.38
2023-02-01T01:29:00.348Z,100059.54
2023-02-01T01:31:29.311Z,100063.27
2023-02-01T01:33:59.806Z,100054.66
2023-02-01T01:36:29.149Z,100055.02
2023-02-01T01:38:57.565Z,100050.08
2023-02-01T01:41:30.357Z,100050.98
2023-02-01T01:44:27.807Z,100049.67
2023-02-01T01:46:55.821Z,100050.09
2023-02-01T01:49:27.054Z,100043.88
2023-02-01T01:52:03.770Z,100043.49
2023-02-01T01:54:36.314Z,100045.31
2023-02-01T01:57:12.373Z,100041.74
2023-02-01T01:59:43.524Z,100042.05
2023-02-01T02:02:11.747Z,100039.30
2023-02-01T02:04:40.291Z,100042.45
2023-02-01T02:07:14.369Z,100042.23
2023-02-01T02:09:54.653Z,100033.94
2023-02-01T02:12:29.114Z,100032.17
2023-02-01T02:14:57.532Z,100032.38
2023-02-01T02:18:10.016Z,100037.02
2023-02-01T02:20:54.524Z,100045.95
2023-02-01T02:23:47.389Z,100037.83
2023-02-01T02:26:40.376Z,100043.12
2023-02-01T02:29:49.740Z,100047.80
2023-02-01T02:32:23.669Z,100047.52
2023-02-01T02:34:58.834Z,100044.18
2023-02-01T02:37:44.232Z,100047.86
2023-02-01T02:40:37.213Z,100048.20
2023-02-01T02:43:46.306Z,100048.61
2023-02-01T02:46:57.232Z,100047.05
2023-02-01T02:49:36.117Z,100044.02
2023-02-01T02:52:34.118Z,100040.65
2023-02-01T02:55:05.491Z,100040.03
2023-02-01T02:57:57.535Z,100048.36
2023-02-01T03:00:51.054Z,100043.29
2023-02-01T03:03:38.293Z,100045.25
2023-02-01T03:06:16.936Z,100037.78
2023-02-01T03:08:46.400Z,100044.10
2023-02-01T03:11:16.866Z,100051.65
2023-02-01T03:13:45.227Z,100038.38
2023-02-01T03:16:44.239Z,100044.27
2023-02-01T03:19:24.861Z,100036.89
2023-02-01T03:22:06.659Z,100032.28
2023-02-01T03:24:42.790Z,100038.41
2023-02-01T03:27:25.875Z,100041.67
2023-02-01T03:30:07.166Z,100044.66
2023-02-01T03:32:56.305Z,100038.30
2023-02-01T03:35:27.286Z,100030.50
2023-02-01T03:38:02.314Z,100028.45
2023-02-01T03:40:35.284Z,100032.36
2023-02-01T03:43:08.482Z,100026.38
2023-02-01T03:45:43.643Z,100025.84
2023-02-01T03:48:15.342Z,100026.23
2023-02-01T03:50:49.628Z,100023.80
2023-02-01T03:53:21.750Z,100027.98
2023-02-01T03:55:52.138Z,100030.44
2023-02-01T03:58:22.574Z,100029.23
2023-02-01T04:00:55.151Z,100023.11
2023-02-01T04:03:24.038Z,100013.86
2023-02-01T04:05:53.355Z,100008.53
2023-02-01T04:08:25.386Z,100012.72
2023-02-01T04:10:53.869Z,100015.14
2023-02-01T04:13:21.802Z,100016.02
2023-02-01T04:15:50.896Z,100020.99
2023-02-01T04:18:18.847Z,100022.38
2023-02-01T04:20:46.636Z,100018.73
2023-02-01T04:23:16.768Z,100017.17
2023-02-01T04:25:44.770Z,100010.05
2023-02-01T04:28:13.269Z,100007.79
2023-02-01T04:30:41.267Z,100009.92
2023-02-01T04:33:09.330Z,100004.44
2023-02-01T04:35:37.181Z,100009.25
2023-02-01T04:38:05.203Z,100011.67
2023-02-01T04:40:33.091Z,100017.81
2023-02-01T04:43:04.681Z,100015.59
2023-02-01T04:45:32.528Z,100023.52
2023-02-01T04:48:00.540Z,100020.21
2023-02-01T04:50:28.493Z,100019.07
2023-02-01T04:52:56.607Z,100013.52
2023-02-01T04:55:24.503Z,100015.48
2023-02-01T04:57:52.459Z,100016.60
2023-02-01T05:00:21.188Z,100015.39
2023-02-01T05:02:49.317Z,100007.03
2023-02-01T05:05:17.531Z,100005.71
2023-02-01T05:07:47.826Z,100000.40
2023-02-01T05:10:16.241Z,100000.18
2023-02-01T05:13:04.108Z,99999.65
2023-02-01T05:15:32.276Z,100009.36
2023-02-01T05:18:00.126Z,100008.77
2023-02-01T05:20:28.177Z,100001.60
2023-02-01T05:22:56.112Z,100002.09
2023-02-01T05:25:24.206Z,100006.33
2023-02-01T05:27:52.258Z,100001.23
2023-02-01T05:30:20.893Z,99996.61
2023-02-01T05:32:53.588Z,99994.19
2023-02-01T05:35:21.560Z,99995.44
2023-02-01T05:37:49.547Z,99995.94
2023-02-01T05:40:17.745Z,99990.17
2023-02-01T05:42:45.732Z,99995.83
2023-02-01T05:45:13.983Z,99997.42
2023-02-01T05:47:41.848Z,99997.17
2023-02-01T05:50:10.180Z,99998.73
2023-02-01T05:52:38.125Z,99999.88
2023-02-01T05:55:06.390Z,100001.95
2023-02-01T05:57:34.476Z,100000.80
2023-02-01T06:00:03.160Z,99999.14
2023-02-01T06:02:40.668Z,100000.70
2023-02-01T06:05:08.910Z,100001.13
2023-02-01T06:07:36.823Z,100002.76
2023-02-01T06:10:05.732Z,100001.97
2023-02-01T06:12:33.720Z,99999.48
2023-02-01T06:15:01.992Z,100001.25
2023-02-01T06:17:30.092Z,100002.64
2023-02-01T06:19:58.206Z,100002.53
2023-02-01T06:22:26.218Z,100004.27
2023-02-01T06:24:54.053Z,100006.34
2023-02-01T06:27:22.035Z,100008.69
2023-02-01T06:29:50.293Z,100010.20
2023-02-01T06:32:20.719Z,100007.17
2023-02-01T06:34:48.488Z,100008.98
2023-02-01T06:37:16.493Z,100012.73
2023-02-01T06:39:44.485Z,100011.97
2023-02-01T06:42:12.415Z,100015.72
2023-02-01T06:44:40.448Z,100017.48
2023-02-01T06:47:09.341Z,100012.28
2023-02-01T06:49:37.480Z,100014.52
2023-02-01T06:52:05.448Z,100011.69
2023-02-01T06:54:34.704Z,100015.79
2023-02-01T06:57:02.645Z,100017.70
2023-02-01T06:59:30.668Z,100016.32
2023-02-01T07:01:58.678Z,100020.19
2023-02-01T07:04:26.603Z,100015.81
2023-02-01T07:06:54.597Z,100018.99
2023-02-01T07:09:22.648Z,100017.09
2023-02-01T07:11:50.540Z,100014.63
2023-02-01T07:14:18.602Z,100016.68
2023-02-01T07:16:46.425Z,100016.67
2023-02-01T07:19:14.536Z,100013.09
2023-02-01T07:21:42.318Z,100014.34
2023-02-01T07:24:10.200Z,100016.30
2023-02-01T07:26:38.297Z,100019.48
2023-02-01T07:29:06.279Z,100022.17
2023-02-01T07:31:34.176Z,100014.46
2023-02-01T07:34:03.702Z,100010.38
2023-02-01T07:36:31.774Z,100017.64
2023-02-01T07:39:00.410Z,100021.44
2023-02-01T07:41:28.371Z,100013.23
2023-02-01T07:43:56.783Z,100015.61
2023-02-01T07:46:24.696Z,100012.36
2023-02-01T07:48:52.493Z,100016.73
2023-02-01T07:51:20.459Z,100019.33
2023-02-01T07:53:48.436Z,100012.88
2023-02-01T07:56:20.006Z,100012.24
2023-02-01T07:58:52.769Z,100013.02
2023-02-01T08:01:26.418Z,100009.67
2023-02-01T08:03:56.808Z,100011.30
2023-02-01T08:06:25.853Z,100008.36
2023-02-01T08:08:54.495Z,100009.58
2023-02-01T08:11:23.602Z,100006.22
2023-02-01T08:13:52.038Z,99997.09
2023-02-01T08:16:21.379Z,99992.94
2023-02-01T08:18:49.948Z,99985.80
2023-02-01T08:21:21.299Z,99985.08
2023-02-01T08:23:49.625Z,99982.28
2023-02-01T08:26:27.114Z,99984.08
2023-02-01T08:29:01.135Z,99981.50
2023-02-01T08:31:30.606Z,99976.20
2023-02-01T08:34:01.425Z,99982.08
2023-02-01T08:36:31.432Z,99982.05
2023-02-01T08:38:59.551Z,99980.39
2023-02-01T08:41:30.559Z,99976.96
2023-02-01T08:43:58.805Z,99976.40
2023-02-01T08:46:27.185Z,99969.24
2023-02-01T08:48:55.324Z,99970.14
2023-02-01T08:51:24.830Z,99970.45
2023-02-01T08:53:52.889Z,99966.27
2023-02-01T08:56:21.070Z,99969.74
2023-02-01T08:58:49.049Z,99966.89
2023-02-01T09:01:18.175Z,99975.35
2023-02-01T09:03:47.059Z,99967.77
2023-02-01T09:06:16.369Z,99965.47
2023-02-01T09:08:44.979Z,99967.61
2023-02-01T09:11:16.354Z,99974.08
2023-02-01T09:13:44.606Z,99985.27
2023-02-01T09:16:13.491Z,99982.85
2023-02-01T09:18:50.833Z,99988.23
2023-02-01T09:21:25.028Z,99990.71
2023-02-01T09:23:53.090Z,99989.89
2023-02-01T09:26:26.519Z,99987.15
2023-02-01T09:29:00.506Z,99985.75
2023-02-01T09:31:28.571Z,99974.05
2023-02-01T09:33:57.336Z,99975.05
2023-02-01T09:36:25.417Z,99973.80
2023-02-01T09:38:54.023Z,99977.81
2023-02-01T09:41:59.997Z,99975.81
2023-02-01T09:44:46.902Z,99972.10
2023-02-01T09:47:18.187Z,99970.82
2023-02-01T09:49:59.577Z,99972.13
2023-02-01T09:52:36.502Z,99964.92
2023-02-01T09:55:16.257Z,99966.96
2023-02-01T09:58:02.303Z,99961.64
2023-02-01T10:00:36.714Z,99962.16
2023-02-01T10:03:04.983Z,99957.35
2023-02-01T10:06:11.426Z,99956.48
2023-02-01T10:08:58.418Z,99951.20
2023-02-01T10:11:52.156Z,99954.79
2023-02-01T10:14:35.453Z,99951.52
2023-02-01T10:17:26.405Z,99947.70
2023-02-01T10:20:05.664Z,99948.43
2023-02-01T10:23:26.869Z,99942.70
2023-02-01T10:26:03.182Z,99940.92
2023-02-01T10:28:35.880Z,99937.35
2023-02-01T10:31:04.742Z,99934.09
2023-02-01T10:33:45.085Z,99930.52
2023-02-01T10:36:33.311Z,99928.08
2023-02-01T10:39:01.680Z,99923.94
2023-02-01T10:41:34.739Z,99924.17
2023-02-01T10:44:12.558Z,99922.88
2023-02-01T10:46:41.130Z,99923.23
2023-02-01T10:49:18.313Z,99922.24
2023-02-01T10:51:58.460Z,99919.54
2023-02-01T10:54:36.048Z,99914.30
2023-02-01T10:57:04.027Z,99910.55
2023-02-01T10:59:34.587Z,99905.73
2023-02-01T11:02:20.256Z,99905.73
2023-02-01T11:04:48.208Z,99904.42
2023-02-01T11:07:25.633Z,99906.47
2023-02-01T11:09:59.126Z,99906.39
2023-02-01T11:12:38.940Z,99911.20
2023-02-01T11:15:12.808Z,99907.43
2023-02-01T11:17:46.376Z,99900.55
2023-02-01T11:20:22.657Z,99897.46
2023-02-01T11:22:57.912Z,99897.10
2023-02-01T11:25:26.998Z,99899.51
2023-02-01T11:27:57.587Z,99894.04
2023-02-01T11:30:34.310Z,99895.29
2023-02-01T11:33:06.536Z,99892.41
2023-02-01T11:35:41.042Z,99890.67
2023-02-01T11:38:26.026Z,99891.66
2023-02-01T11:40:54.107Z,99891.00
2023-02-01T11:43:29.945Z,99892.87
2023-02-01T11:46:03.762Z,99893.94
2023-02-01T11:48:34.268Z,99889.20
2023-02-01T11:51:24.454Z,99889.19
2023-02-01T11:53:58.385Z,99889.11
2023-02-01T11:56:32.008Z,99890.61
2023-02-01T11:59:28.485Z,99883.92
2023-02-01T12:02:09.704Z,99878.75
2023-02-01T12:05:13.433Z,99872.72
2023-02-01T12:08:03.479Z,99878.47
2023-02-01T12:10:53.372Z,99880.48
2023-02-01T12:13:38.367Z,99879.31
2023-02-01T12:16:35.365Z,99888.20
2023-02-01T12:19:22.278Z,99893.05
2023-02-01T12:22:03.679Z,99885.76
2023-02-01T12:24:55.945Z,99887.90
2023-02-01T12:28:02.267Z,99889.82
2023-02-01T12:30:53.828Z,99892.98
2023-02-01T12:33:50.689Z,99892.85
2023-02-01T12:36:54.788Z,99899.31
2023-02-01T12:39:48.762Z,99894.95
2023-02-01T12:42:41.185Z,99897.60
2023-02-01T12:45:16.236Z,99900.01
2023-02-01T12:47:55.174Z,99894.68
2023-02-01T12:50:29.475Z,99898.77
2023-02-01T12:53:24.958Z,99893.25
2023-02-01T12:55:56.711Z,99898.66
2023-02-01T12:58:41.461Z,99896.83
2023-02-01T13:01:19.111Z,99895.29
2023-02-01T13:04:24.497Z,99891.88
2023-02-01T13:07:00.111Z,99900.27
2023-02-01T13:09:40.408Z,99898.07
2023-02-01T13:12:18.842Z,99903.16
2023-02-01T13:14:56.283Z,99908.33
2023-02-01T13:17:29.240Z,99905.48
2023-02-01T13:19:59.095Z,99902.37
2023-02-01T13:22:33.131Z,99907.58
2023-02-01T13:25:05.697Z,99909.26
2023-02-01T13:27:34.435Z,99908.32
2023-02-01T13:30:09.718Z,99904.85
2023-02-01T13:33:51.690Z,99905.64
2023-02-01T13:36:11.883Z,99905.89
2023-02-01T13:39:34.142Z,99906.09
2023-02-01T13:42:06.032Z,99906.13
2023-02-01T13:44:47.053Z,99907.02
2023-02-01T13:47:36.872Z,99905.90
2023-02-01T13:50:25.716Z,99903.12
2023-02-01T13:53:16.181Z,99907.46
2023-02-01T13:55:46.999Z,99905.16
2023-02-01T13:58:22.159Z,99903.27
2023-02-01T14:00:54.573Z,99897.99
2023-02-01T14:03:45.324Z,99908.80
2023-02-01T14:06:38.972Z,99908.31
2023-02-01T14:09:15.359Z,99907.49
2023-02-01T14:11:54.629Z,99902.05
2023-02-01T14:14:22.735Z,99894.30
2023-02-01T14:16:53.824Z,99895.15
2023-02-01T14:19:24.463Z,99893.99
2023-02-01T14:21:59.744Z,99888.05
2023-02-01T14:24:37.485Z,99887.21
2023-02-01T14:27:28.171Z,99889.77
2023-02-01T14:30:02.486Z,99887.66
2023-02-01T14:32:39.341Z,99892.14
2023-02-01T14:35:29.075Z,99885.58
2023-02-01T14:38:08.111Z,99886.81
2023-02-01T14:40:36.973Z,99888.31
2023-02-01T14:43:05.089Z,99884.27
2023-02-01T14:45:33.074Z,99883.89
2023-02-01T14:48:07.255Z,99887.06
2023-02-01T14:50:42.003Z,99884.59
2023-02-01T14:53:16.036Z,99882.52
2023-02-01T14:55:51.232Z,99884.92
2023-02-01T14:58:24.763Z,99881.15
2023-02-01T15:00:55.804Z,99888.73
2023-02-01T15:03:35.612Z,99889.16
2023-02-01T15:06:07.058Z,99887.15
2023-02-01T15:08:40.152Z,99880.40
2023-02-01T15:11:15.296Z,99879.23
2023-02-01T15:13:55.559Z,99881.11
2023-02-01T15:16:26.583Z,99881.36
2023-02-01T15:19:14.789Z,99881.61
2023-02-01T15:21:46.909Z,99887.89
2023-02-01T15:24:23.734Z,99885.11
2023-02-01T15:26:54.492Z,99885.27
2023-02-01T15:29:28.658Z,99879.52
2023-02-01T15:31:56.873Z,99883.98
2023-02-01T15:34:24.923Z,99885.00
2023-02-01T15:37:08.152Z,99890.52
2023-02-01T15:39:38.448Z,99896.36
2023-02-01T15:42:19.723Z,99890.13
2023-02-01T15:44:47.889Z,99893.54
2023-02-01T15:47:25.852Z,99889.83
2023-02-01T15:49:59.766Z,99895.32
2023-02-01T15:52:40.316Z,99883.84
2023-02-01T15:55:48.770Z,99887.29
2023-02-01T15:58:23.429Z,99881.20
2023-02-01T16:00:52.812Z,99886.23
2023-02-01T16:03:37.560Z,99889.57
2023-02-01T16:06:11.672Z,99886.79
2023-02-01T16:08:56.139Z,99890.33
2023-02-01T16:11:31.674Z,99886.66
2023-02-01T16:14:02.678Z,99892.29
2023-02-01T16:16:30.962Z,99896.84
2023-02-01T16:18:58.976Z,99901.00
2023-02-01T16:21:26.923Z,99899.42
2023-02-01T16:23:54.974Z,99897.59
2023-02-01T16:26:22.997Z,99895.08
2023-02-01T16:28:51.136Z,99890.38
2023-02-01T16:31:25.876Z,99891.59
2023-02-01T16:33:53.990Z,99890.95
2023-02-01T16:36:22.571Z,99890.81
2023-02-01T16:38:50.573Z,99886.81
2023-02-01T16:41:20.811Z,99886.29
2023-02-01T16:43:55.014Z,99882.29
2023-02-01T16:46:26.922Z,99885.83
2023-02-01T16:49:02.241Z,99882.94
2023-02-01T16:51:33.710Z,99876.93
2023-02-01T16:54:02.457Z,99876.92
2023-02-01T16:56:33.630Z,99876.66
2023-02-01T16:59:02.232Z,99881.05
2023-02-01T17:01:30.225Z,99880.45
2023-02-01T17:03:58.847Z,99878.44
2023-02-01T17:06:33.585Z,99874.05
2023-02-01T17:09:03.339Z,99870.77
2023-02-01T17:11:31.969Z,99866.48
2023-02-01T17:14:16.268Z,99867.17
2023-02-01T17:16:46.813Z,99866.10
2023-02-01T17:19:24.396Z,99864.52
2023-02-01T17:21:59.689Z,99858.49
2023-02-01T17:24:42.428Z,99858.42
2023-02-01T17:27:17.561Z,99853.15
2023-02-01T17:29:47.167Z,99854.34
2023-02-01T17:32:24.326Z,99864.96
2023-02-01T17:34:52.655Z,99855.74
2023-02-01T17:37:30.127Z,99852.11
2023-02-01T17:39:58.646Z,99848.90
2023-02-01T17:42:28.908Z,99851.89
2023-02-01T17:45:00.270Z,99845.34
2023-02-01T17:47:28.286Z,99841.98
2023-02-01T17:49:57.090Z,99843.64
2023-02-01T17:52:26.308Z,99843.95
2023-02-01T17:54:54.531Z,99840.65
2023-02-01T17:57:22.784Z,99830.48
2023-02-01T17:59:50.740Z,99827.51
2023-02-01T18:02:24.065Z,99821.45
2023-02-01T18:04:52.628Z,99814.65
2023-02-01T18:07:21.153Z,99810.46
2023-02-01T18:09:49.121Z,99806.58
2023-02-01T18:12:22.874Z,99797.91
2023-02-01T18:14:51.092Z,99793.65
2023-02-01T18:17:19.081Z,99796.07
2023-02-01T18:19:47.127Z,99802.67
2023-02-01T18:22:22.338Z,99799.83
2023-02-01T18:24:50.459Z,99797.39
2023-02-01T18:27:18.316Z,99793.59
2023-02-01T18:29:46.266Z,99794.62
2023-02-01T18:32:14.217Z,99784.72
2023-02-01T18:34:42.158Z,99784.92
2023-02-01T18:37:10.272Z,99780.58
2023-02-01T18:39:39.614Z,99773.55
2023-02-01T18:42:10.526Z,99773.60
2023-02-01T18:44:38.497Z,99769.61
2023-02-01T18:47:06.399Z,99765.77
2023-02-01T18:49:36.686Z,99765.54
2023-02-01T18:52:06.054Z,99763.32
2023-02-01T18:54:34.126Z,99761.28
2023-02-01T18:57:02.029Z,99759.89
2023-02-01T18:59:30.638Z,99757.96
2023-02-01T19:01:58.675Z,99756.07
2023-02-01T19:04:27.161Z,99754.44
2023-02-01T19:06:55.405Z,99753.89
2023-02-01T19:09:23.471Z,99744.85
2023-02-01T19:11:51.271Z,99746.09
2023-02-01T19:14:19.232Z,99748.48
2023-02-01T19:16:47.214Z,99744.41
2023-02-01T19:19:15.133Z,99742.88
2023-02-01T19:21:43.191Z,99744.52
2023-02-01T19:24:11.276Z,99742.63
2023-02-01T19:26:41.489Z,99748.40
2023-02-01T19:29:10.794Z,99743.67
2023-02-01T19:31:38.637Z,99743.62
2023-02-01T19:34:06.687Z,99745.65
2023-02-01T19:36:34.682Z,99747.62
2023-02-01T19:39:02.516Z,99750.73
2023-02-01T19:41:30.582Z,99753.20
2023-02-01T19:43:58.933Z,99743.02
2023-02-01T19:46:27.334Z,99742.82
2023-02-01T19:48:55.315Z,99745.22
2023-02-01T19:51:24.238Z,99744.05
2023-02-01T19:53:52.115Z,99751.59
2023-02-01T19:56:19.929Z,99750.75
2023-02-01T19:58:47.868Z,99748.41
2023-02-01T20:01:15.493Z,99749.50
2023-02-01T20:03:43.456Z,99756.01
2023-02-01T20:06:12.645Z,99768.04
2023-02-01T20:08:40.517Z,99766.23
2023-02-01T20:11:08.460Z,99766.26
2023-02-01T20:13:38.700Z,99773.46
2023-02-01T20:16:07.471Z,99778.70
2023-02-01T20:18:36.500Z,99780.98
2023-02-01T20:21:04.465Z,99779.59
2023-02-01T20:23:32.787Z,99782.85
2023-02-01T20:26:06.157Z,99778.66
2023-02-01T20:28:34.734Z,99781.90
2023-02-01T20:31:02.924Z,99789.52
2023-02-01T20:33:31.593Z,99788.67
2023-02-01T20:35:59.842Z,99786.30
2023-02-01T20:38:27.851Z,99786.41
2023-02-01T20:41:07.428Z,99788.58
2023-02-01T20:43:36.164Z,99793.33
2023-02-01T20:46:05.092Z,99797.92
2023-02-01T20:48:33.380Z,99798.41
2023-02-01T20:51:01.659Z,99801.30
2023-02-01T20:53:30.461Z,99799.29
2023-02-01T20:55:59.368Z,99810.29
2023-02-01T20:58:27.603Z,99815.98
2023-02-01T21:00:55.663Z,99804.90
2023-02-01T21:03:23.957Z,99804.67
2023-02-01T21:05:54.535Z,99805.08
2023-02-01T21:08:22.542Z,99804.23
2023-02-01T21:11:02.053Z,99807.09
2023-02-01T21:13:36.280Z,99816.19
2023-02-01T21:16:08.753Z,99810.79
2023-02-01T21:18:36.751Z,99821.67
2023-02-01T21:21:12.876Z,99824.93
2023-02-01T21:23:48.637Z,99831.04
2023-02-01T21:26:22.313Z,99832.70
2023-02-01T21:28:52.750Z,99841.98
2023-02-01T21:31:22.516Z,99842.63
2023-02-01T21:33:51.483Z,99841.91
2023-02-01T21:36:19.803Z,99839.68
2023-02-01T21:39:03.836Z,99843.98
2023-02-01T21:41:52.798Z,99848.84
2023-02-01T21:44:21.983Z,99852.39
2023-02-01T21:46:50.384Z,99850.02
2023-02-01T21:49:18.442Z,99854.65
2023-02-01T21:51:46.572Z,99861.85
2023-02-01T21:54:14.492Z,99861.83
2023-02-01T21:56:42.448Z,99866.33
2023-02-01T21:59:10.607Z,99873.89
2023-02-01T22:01:40.607Z,99868.96
2023-02-01T22:04:10.294Z,99872.27
2023-02-01T22:06:46.719Z,99868.72
2023-02-01T22:09:20.602Z,99867.33
2023-02-01T22:11:50.100Z,99870.10
2023-02-01T22:14:19.031Z,99871.29
2023-02-01T22:16:47.762Z,99874.95
2023-02-01T22:19:16.536Z,99874.08
2023-02-01T22:21:46.724Z,99888.62
2023-02-01T22:24:16.796Z,99886.55
2023-02-01T22:26:44.796Z,99878.88
2023-02-01T22:29:14.846Z,99881.11
2023-02-01T22:31:43.554Z,99886.73
2023-02-01T22:34:12.764Z,99887.60
2023-02-01T22:36:41.167Z,99894.70
2023-02-01T22:39:09.416Z,99891.10
2023-02-01T22:41:37.369Z,99887.45
2023-02-01T22:44:05.751Z,99887.86
2023-02-01T22:46:34.433Z,99874.45
2023-02-01T22:49:04.094Z,99866.40
2023-02-01T22:51:33.250Z,99864.30
2023-02-01T22:54:01.353Z,99867.39
2023-02-01T22:56:35.821Z,99865.21
2023-02-01T22:59:06.955Z,99861.80
2023-02-01T23:01:35.702Z,99860.74
2023-02-01T23:04:05.970Z,99860.85
2023-02-01T23:06:34.727Z,99866.08
2023-02-01T23:09:17.260Z,99874.23
2023-02-01T23:11:46.088Z,99870.19
2023-02-01T23:14:15.934Z,99877.35
2023-02-01T23:16:45.595Z,99888.27
2023-02-01T23:19:14.153Z,99887.46
2023-02-01T23:21:42.261Z,99890.46
2023-02-01T23:24:11.269Z,99889.53
2023-02-01T23:26:39.700Z,99889.60
2023-02-01T23:29:16.150Z,99892.31
2023-02-01T23:31:43.917Z,99890.69
2023-02-01T23:34:12.208Z,99891.65
2023-02-01T23:36:40.370Z,99891.91
2023-02-01T23:39:08.313Z,99883.55
2023-02-01T23:41:36.277Z,99887.62
2023-02-01T23:44:04.592Z,99880.31
2023-02-01T23:46:34.243Z,99880.51
2023-02-01T23:49:04.440Z,99875.40
2023-02-01T23:51:33.057Z,99875.27
2023-02-01T23:54:01.003Z,99872.89
2023-02-01T23:56:33.381Z,99870.65
2023-02-01T23:59:05.979Z,99870.23
